Dresden, Kansas
Current Conditions -  °F | °C
As of 6:53 PM on Friday 21 Nov 2014 (Local Time) from KHLC Reporting Station
Few Clouds Few Clouds  
Wind Chill: 32°   Ceiling: Unl
Heat Index: 36°   Visibility: 8mi
Dew Point: 33°   Wind: 5mph
Humidity: 89%   Direction: 100°E
Pressure: 29.98"   Gusts: NA
Location:  39.62°N, 100.42°W
Report Text: KHLC 220053Z AUTO 10004KT 8SM FEW014 02/01 A2998 RMK AO2 SLP172 T00220006
Loading
Personal Weather Stations






























Interactive Weather Map New forecast layout! Learn more

10-Day Weather Forecast

Advertisements
Track Severe Weather on mobile